Hauptseite
METAR-TAF:

METAR-TAF

Flughäfen :

Angers, Frankreich

Flughafen Angers Loire

Breite: 47-33-37N, Länge: 000-18-44W, Höhe: 59 m

METAR: fehlend

Zeit: 14:07 (13:07 UTC)

Prognose

Neuester Wetterbericht von vor 2 Stunden und 7 Minuten, um 11:00 UTC
Gültige Prognose vom 20 um 12 UTC bis 20 um 21 UTC
Wind 15 kt aus West, Böen bis zu 32 kt
Sichtweite 10 km oder mehr
Durchbrochene Bewölkung in der Höhe von 1600 ft
Zeitweise
vom 20 um 12 UTC bis 20 um 21 UTC
Sichtweite: 4000 m
Durchbrochene Bewölkung in der Höhe von 700 ft
Leichtregen, Sprühregen
Zeitweise
vom 20 um 18 UTC bis 20 um 21 UTC
Wind 15 kt aus West/Nordwest, Böen bis zu 25 kt

TAF: LFJR 201100Z 2012/2021 26015G32KT 9999 BKN016 TEMPO 2012/2021 4000 -RADZ BKN007 TEMPO 2018/2021 29015G25KT

Wetterbeobachtungen und Prognosen von mehr als 4000 Flughäfen (METAR und TAF Bericht).

Die verfügbaren Stationen werden durch gelbe und rote Markierungen auf der Karte dargestellt.

Führen Sie die Maus auf sie, um den Namen der Station zu sehen.

Darauf klicken, um die Beobachtung von Wetterbeobachtungen und Prognosen zu sehen.

Um die Karte zu ändern : klicken Sie auf den grünen Tasten mit einem schwarzen Kreuz Zum Vergrößern, auf den grünen Button mit einem Gedankenstrich zu verkleinern, oder auf die grünen Pfeile für benachbarte Karten.


METAR-TAF: